Time;durP1;ratioP1;P1;durP2;ratioP2;P2;SDS_P1;SDS_P2;PMS_P1;PMS_P2;Temp;Humidity;BMP_temperature;BMP_pressure;BME280_temperature;BME280_humidity;BME280_pressure;Samples;Min_cycle;Max_cycle;Signal;HPM_P1;HPM_P2
2023/07/26 00:02:09;;;;;;;4.07;2.10;;;;;;;;;;5030913;28;20036;-78
2023/07/26 00:04:34;;;;;;;7.40;1.95;;;;;;;;;;5032240;28;20389;-79
2023/07/26 00:06:59;;;;;;;2.50;1.60;;;;;;;;;;5034735;28;20115;-79
2023/07/26 00:09:25;;;;;;;7.15;1.75;;;;;;;;;;5032608;28;20022;-79
2023/07/26 00:11:52;;;;;;;4.30;1.85;;;;;;;;;;5027337;28;20026;-79
2023/07/26 00:14:18;;;;;;;1.98;1.60;;;;;;;;;;5030611;28;20120;-79
2023/07/26 00:16:43;;;;;;;4.70;1.92;;;;;;;;;;5030399;28;20156;-79
2023/07/26 00:19:08;;;;;;;2.83;1.77;;;;;;;;;;5030580;28;20057;-79
2023/07/26 00:21:34;;;;;;;2.85;1.70;;;;;;;;;;5031447;28;20029;-79
2023/07/26 00:23:59;;;;;;;3.60;1.70;;;;;;;;;;5031735;28;20033;-79
2023/07/26 00:26:25;;;;;;;5.78;1.60;;;;;;;;;;5032074;28;20523;-79
2023/07/26 00:28:53;;;;;;;8.25;2.00;;;;;;;;;;5030952;28;20390;-79
2023/07/26 00:31:18;;;;;;;2.47;1.70;;;;;;;;;;5029724;28;20113;-79
2023/07/26 00:33:43;;;;;;;2.60;1.52;;;;;;;;;;5030201;28;20057;-78
2023/07/26 00:36:09;;;;;;;5.38;1.92;;;;;;;;;;5030486;28;20109;-79
2023/07/26 00:38:34;;;;;;;5.75;1.80;;;;;;;;;;5030706;28;20484;-79
2023/07/26 00:41:02;;;;;;;5.72;2.05;;;;;;;;;;5030143;28;20138;-79
2023/07/26 00:43:27;;;;;;;2.80;1.90;;;;;;;;;;5029394;28;20021;-79
2023/07/26 00:45:53;;;;;;;2.45;1.70;;;;;;;;;;5030322;28;20032;-79
2023/07/26 00:48:19;;;;;;;4.68;2.08;;;;;;;;;;5030413;28;20124;-79
2023/07/26 00:50:45;;;;;;;7.75;2.38;;;;;;;;;;5030680;28;20033;-79
2023/07/26 00:53:11;;;;;;;8.23;2.55;;;;;;;;;;5030074;28;20029;-79
2023/07/26 00:55:37;;;;;;;3.50;1.58;;;;;;;;;;5030658;28;20075;-78
2023/07/26 00:58:03;;;;;;;4.13;1.70;;;;;;;;;;5031376;28;20321;-79
2023/07/26 01:00:28;;;;;;;4.18;2.10;;;;;;;;;;5030501;28;20026;-78
2023/07/26 01:02:53;;;;;;;3.08;1.80;;;;;;;;;;5029955;28;20067;-79
2023/07/26 01:05:22;;;;;;;6.10;1.70;;;;;;;;;;5030389;28;20033;-78
2023/07/26 01:07:48;;;;;;;3.03;1.40;;;;;;;;;;5031333;28;20030;-79
2023/07/26 01:10:22;;;;;;;3.00;1.60;;;;;;;;;;5031494;28;20055;-79
2023/07/26 01:13:08;;;;;;;4.95;1.90;;;;;;;;;;5024925;28;20061;-79
2023/07/26 01:15:35;;;;;;;2.97;1.50;;;;;;;;;;5031806;28;20087;-79
2023/07/26 01:18:08;;;;;;;6.93;1.60;;;;;;;;;;5036013;28;20021;-79
2023/07/26 01:20:33;;;;;;;2.03;1.30;;;;;;;;;;5036254;28;20404;-79
2023/07/26 01:22:59;;;;;;;6.70;1.50;;;;;;;;;;5035823;28;20334;-79
2023/07/26 01:25:27;;;;;;;2.10;1.48;;;;;;;;;;5036645;28;20032;-79
2023/07/26 01:27:52;;;;;;;3.65;1.98;;;;;;;;;;5035554;28;20014;-79
2023/07/26 01:30:18;;;;;;;4.05;1.75;;;;;;;;;;5037603;28;20025;-79
2023/07/26 01:32:44;;;;;;;2.70;1.52;;;;;;;;;;5033821;28;20032;-79
2023/07/26 01:35:09;;;;;;;4.00;1.70;;;;;;;;;;5034020;28;20075;-79
2023/07/26 01:37:36;;;;;;;3.38;1.70;;;;;;;;;;5033133;28;20042;-79
2023/07/26 01:40:03;;;;;;;7.13;2.33;;;;;;;;;;5034151;28;20041;-79
2023/07/26 01:42:28;;;;;;;3.85;1.50;;;;;;;;;;5033410;28;20033;-79
2023/07/26 01:44:53;;;;;;;3.55;1.50;;;;;;;;;;5033477;28;20025;-78
2023/07/26 01:47:18;;;;;;;3.50;1.40;;;;;;;;;;5033003;28;20537;-79
2023/07/26 01:49:47;;;;;;;6.82;1.63;;;;;;;;;;5032351;28;20029;-79
2023/07/26 01:52:12;;;;;;;4.38;1.70;;;;;;;;;;5033335;28;20033;-79
2023/07/26 01:54:37;;;;;;;3.08;1.85;;;;;;;;;;5033634;28;20501;-79
2023/07/26 01:57:05;;;;;;;2.35;1.65;;;;;;;;;;5032634;28;20055;-79
2023/07/26 01:59:32;;;;;;;4.63;2.45;;;;;;;;;;5033279;28;20040;-79
2023/07/26 02:01:57;;;;;;;3.00;1.90;;;;;;;;;;5033017;28;20041;-79
2023/07/26 02:04:24;;;;;;;3.60;1.90;;;;;;;;;;5033229;28;20024;-79
2023/07/26 02:06:49;;;;;;;2.60;1.70;;;;;;;;;;5032695;28;20342;-79
2023/07/26 02:09:14;;;;;;;7.38;1.90;;;;;;;;;;5034288;28;20064;-79
2023/07/26 02:11:42;;;;;;;5.63;1.95;;;;;;;;;;5033076;28;20381;-79
2023/07/26 02:14:08;;;;;;;4.28;1.85;;;;;;;;;;5034384;28;20108;-79
2023/07/26 02:16:33;;;;;;;4.95;1.92;;;;;;;;;;5032344;28;20025;-79
2023/07/26 02:18:58;;;;;;;4.50;1.90;;;;;;;;;;5033321;28;20035;-79
2023/07/26 02:21:24;;;;;;;4.20;1.90;;;;;;;;;;5033609;28;20472;-79
2023/07/26 02:23:49;;;;;;;3.28;1.73;;;;;;;;;;5033051;28;20026;-79
2023/07/26 02:26:14;;;;;;;2.30;1.60;;;;;;;;;;5032450;28;20032;-78
2023/07/26 02:28:40;;;;;;;3.20;1.75;;;;;;;;;;5033135;28;20120;-79
2023/07/26 02:31:05;;;;;;;4.00;2.13;;;;;;;;;;5034790;28;20216;-78
2023/07/26 02:33:31;;;;;;;3.20;1.75;;;;;;;;;;5036454;28;20067;-79
2023/07/26 02:35:59;;;;;;;5.18;1.70;;;;;;;;;;5033250;28;20445;-78
2023/07/26 02:38:24;;;;;;;6.97;1.95;;;;;;;;;;5036054;28;20036;-79
2023/07/26 02:40:50;;;;;;;3.95;1.90;;;;;;;;;;5036715;28;20021;-79
2023/07/26 02:43:15;;;;;;;3.08;1.70;;;;;;;;;;5035577;28;20061;-78
2023/07/26 02:45:41;;;;;;;2.42;1.67;;;;;;;;;;5034021;28;20116;-79
2023/07/26 02:48:09;;;;;;;5.93;1.80;;;;;;;;;;5023426;28;20461;-78
2023/07/26 02:50:34;;;;;;;4.60;1.98;;;;;;;;;;5019651;28;20041;-79
2023/07/26 02:53:00;;;;;;;8.50;1.90;;;;;;;;;;5029657;28;20108;-78
2023/07/26 02:55:25;;;;;;;12.85;1.88;;;;;;;;;;5033921;28;20442;-79
2023/07/26 02:57:51;;;;;;;3.13;2.10;;;;;;;;;;5031710;28;20052;-79
2023/07/26 03:00:16;;;;;;;7.38;1.92;;;;;;;;;;5032176;28;20147;-79
2023/07/26 03:02:42;;;;;;;4.55;2.30;;;;;;;;;;5033231;28;20036;-79
2023/07/26 03:05:08;;;;;;;6.07;2.00;;;;;;;;;;5033451;28;20461;-79
2023/07/26 03:07:33;;;;;;;4.35;2.08;;;;;;;;;;5032165;28;20025;-79
2023/07/26 03:09:58;;;;;;;3.40;1.83;;;;;;;;;;5033278;28;20013;-78
2023/07/26 03:12:23;;;;;;;4.63;1.95;;;;;;;;;;5031751;28;20032;-79
2023/07/26 03:14:51;;;;;;;3.90;1.90;;;;;;;;;;5032059;28;20124;-79
2023/07/26 03:17:16;;;;;;;4.35;1.85;;;;;;;;;;5030953;28;20063;-78
2023/07/26 03:19:42;;;;;;;4.28;2.28;;;;;;;;;;5031914;28;20025;-79
2023/07/26 03:22:07;;;;;;;5.30;2.13;;;;;;;;;;5031669;28;20010;-79
2023/07/26 03:24:32;;;;;;;4.47;2.03;;;;;;;;;;5031730;28;20354;-79
2023/07/26 03:26:57;;;;;;;4.53;2.13;;;;;;;;;;5030782;28;20183;-79
2023/07/26 03:29:23;;;;;;;4.38;2.10;;;;;;;;;;5031530;28;20013;-78
2023/07/26 03:31:48;;;;;;;4.25;1.88;;;;;;;;;;5031995;28;20101;-79
2023/07/26 03:34:16;;;;;;;2.65;2.08;;;;;;;;;;5031684;28;20017;-79
2023/07/26 03:36:41;;;;;;;4.15;2.13;;;;;;;;;;5030940;28;20025;-79
2023/07/26 03:39:07;;;;;;;3.75;1.95;;;;;;;;;;5030711;28;20017;-79
2023/07/26 03:41:32;;;;;;;4.90;2.08;;;;;;;;;;5031159;28;20254;-78
2023/07/26 03:43:57;;;;;;;4.40;2.08;;;;;;;;;;5033742;28;20028;-78
2023/07/26 03:46:23;;;;;;;4.07;2.10;;;;;;;;;;5032399;28;20024;-78
2023/07/26 03:48:48;;;;;;;3.55;2.17;;;;;;;;;;5031502;28;20025;-79
2023/07/26 03:51:13;;;;;;;5.85;2.35;;;;;;;;;;5031995;28;20108;-79
2023/07/26 03:53:39;;;;;;;6.63;1.88;;;;;;;;;;5033134;28;20128;-79
2023/07/26 03:56:04;;;;;;;4.72;1.95;;;;;;;;;;5033931;28;20055;-79
2023/07/26 03:58:29;;;;;;;7.10;2.28;;;;;;;;;;5033607;28;20013;-79
2023/07/26 04:00:55;;;;;;;4.38;1.77;;;;;;;;;;5031318;28;20143;-79
2023/07/26 04:03:20;;;;;;;3.05;1.90;;;;;;;;;;5031176;28;20027;-79
2023/07/26 04:05:48;;;;;;;4.03;2.00;;;;;;;;;;5031218;28;20025;-79
2023/07/26 04:08:13;;;;;;;3.67;2.28;;;;;;;;;;5031769;28;20341;-79
2023/07/26 04:10:39;;;;;;;3.10;2.03;;;;;;;;;;5031337;28;20393;-79
2023/07/26 04:13:04;;;;;;;3.35;2.30;;;;;;;;;;5033302;28;20464;-79
2023/07/26 04:15:29;;;;;;;4.43;2.08;;;;;;;;;;5031844;28;20013;-79
2023/07/26 04:17:55;;;;;;;2.90;2.25;;;;;;;;;;5030845;28;20127;-78
2023/07/26 04:20:20;;;;;;;9.57;2.70;;;;;;;;;;5030452;28;20104;-79
2023/07/26 04:22:46;;;;;;;6.60;2.30;;;;;;;;;;5030828;28;20026;-79
2023/07/26 04:25:11;;;;;;;5.45;2.33;;;;;;;;;;5030876;28;20022;-78
2023/07/26 04:27:36;;;;;;;3.30;1.83;;;;;;;;;;5030821;28;20018;-79
2023/07/26 04:30:02;;;;;;;2.42;1.90;;;;;;;;;;5031494;28;20046;-79
2023/07/26 04:32:28;;;;;;;3.50;2.15;;;;;;;;;;5030759;28;20369;-79
2023/07/26 04:34:53;;;;;;;3.45;2.33;;;;;;;;;;5030917;28;20204;-78
2023/07/26 04:37:18;;;;;;;7.93;2.53;;;;;;;;;;5030480;28;20040;-79
2023/07/26 04:39:45;;;;;;;6.68;2.47;;;;;;;;;;5030142;28;20029;-78
2023/07/26 04:42:10;;;;;;;3.83;2.60;;;;;;;;;;5022832;28;20030;-79
2023/07/26 04:44:35;;;;;;;8.25;2.50;;;;;;;;;;5024394;28;20522;-79
2023/07/26 04:47:01;;;;;;;4.45;2.50;;;;;;;;;;5030445;28;20101;-79
2023/07/26 04:49:26;;;;;;;3.92;2.25;;;;;;;;;;5030536;28;20029;-78
2023/07/26 04:51:51;;;;;;;5.50;2.40;;;;;;;;;;5032864;28;20098;-79
2023/07/26 04:54:16;;;;;;;5.10;2.88;;;;;;;;;;5034543;28;20031;-79
2023/07/26 04:56:45;;;;;;;6.65;2.75;;;;;;;;;;5034392;28;20029;-78
2023/07/26 04:59:10;;;;;;;3.85;2.80;;;;;;;;;;5034612;28;20017;-78
2023/07/26 05:01:35;;;;;;;5.25;2.60;;;;;;;;;;5034685;28;20502;-79
2023/07/26 05:04:01;;;;;;;8.20;3.05;;;;;;;;;;5033859;28;20041;-79
2023/07/26 05:06:26;;;;;;;6.75;2.72;;;;;;;;;;5034412;28;20041;-79
2023/07/26 05:08:51;;;;;;;6.78;3.15;;;;;;;;;;5034587;28;20417;-79
2023/07/26 05:11:20;;;;;;;7.68;2.90;;;;;;;;;;5033720;28;20025;-79
2023/07/26 05:13:46;;;;;;;8.93;3.22;;;;;;;;;;5034401;28;20444;-78
2023/07/26 05:16:11;;;;;;;10.52;4.22;;;;;;;;;;5035205;28;20082;-79
2023/07/26 05:18:39;;;;;;;6.60;3.22;;;;;;;;;;5034537;28;20021;-78
2023/07/26 05:21:04;;;;;;;7.30;3.30;;;;;;;;;;5034461;28;20512;-78
2023/07/26 05:23:29;;;;;;;9.55;3.95;;;;;;;;;;5035977;28;20049;-78
2023/07/26 05:25:55;;;;;;;19.67;4.53;;;;;;;;;;5036525;28;20102;-78
2023/07/26 05:28:21;;;;;;;9.02;3.42;;;;;;;;;;5037471;28;20108;-79
2023/07/26 05:30:46;;;;;;;12.13;3.95;;;;;;;;;;5040825;28;20021;-78
2023/07/26 05:33:12;;;;;;;7.63;4.32;;;;;;;;;;5037389;28;20128;-79
2023/07/26 05:35:38;;;;;;;10.82;4.07;;;;;;;;;;5034069;28;20025;-79
2023/07/26 05:38:03;;;;;;;11.93;4.07;;;;;;;;;;5033647;28;20029;-79
2023/07/26 05:40:28;;;;;;;7.45;3.90;;;;;;;;;;5034565;28;20022;-79
2023/07/26 05:42:57;;;;;;;7.93;3.72;;;;;;;;;;5035396;28;20033;-78
2023/07/26 05:45:22;;;;;;;11.48;4.15;;;;;;;;;;5033270;28;20087;-79
2023/07/26 05:47:47;;;;;;;9.90;4.10;;;;;;;;;;5033504;28;20033;-78
2023/07/26 05:50:13;;;;;;;8.05;4.15;;;;;;;;;;5022463;28;20071;-78
2023/07/26 05:52:39;;;;;;;12.05;4.80;;;;;;;;;;5033745;28;20404;-79
2023/07/26 05:55:05;;;;;;;12.75;4.78;;;;;;;;;;5033083;28;20036;-78
2023/07/26 05:57:30;;;;;;;7.80;3.92;;;;;;;;;;5033491;28;20022;-79
2023/07/26 05:59:55;;;;;;;11.63;4.30;;;;;;;;;;5032794;28;20033;-79
2023/07/26 06:02:21;;;;;;;7.90;4.22;;;;;;;;;;5031984;28;20025;-79
2023/07/26 06:04:46;;;;;;;10.40;4.57;;;;;;;;;;5033312;28;20064;-79
2023/07/26 06:07:11;;;;;;;10.45;4.25;;;;;;;;;;5033324;28;20480;-79
2023/07/26 06:09:36;;;;;;;9.95;4.25;;;;;;;;;;5033303;28;20377;-79
2023/07/26 06:12:05;;;;;;;14.63;4.88;;;;;;;;;;5031665;28;20018;-79
2023/07/26 06:14:30;;;;;;;9.60;4.57;;;;;;;;;;5023195;28;20033;-78
2023/07/26 06:16:58;;;;;;;10.43;4.75;;;;;;;;;;5032072;28;20026;-78
2023/07/26 06:19:23;;;;;;;9.55;4.68;;;;;;;;;;5033031;28;20072;-79
2023/07/26 06:21:49;;;;;;;6.93;4.28;;;;;;;;;;5032933;28;20148;-79
2023/07/26 06:24:14;;;;;;;10.20;4.75;;;;;;;;;;5032107;28;20083;-78
2023/07/26 06:26:42;;;;;;;11.52;4.28;;;;;;;;;;5032885;28;20037;-79
2023/07/26 06:29:08;;;;;;;14.18;4.65;;;;;;;;;;5032575;28;20110;-78
2023/07/26 06:31:33;;;;;;;12.18;4.60;;;;;;;;;;5032873;28;20059;-79
2023/07/26 06:33:58;;;;;;;8.55;3.85;;;;;;;;;;5032941;28;20025;-79
2023/07/26 06:36:26;;;;;;;8.10;4.57;;;;;;;;;;5031720;28;20036;-79
2023/07/26 06:38:52;;;;;;;7.25;3.97;;;;;;;;;;5023543;28;20037;-78
2023/07/26 06:41:19;;;;;;;13.05;4.82;;;;;;;;;;5031914;28;20025;-79
2023/07/26 06:43:45;;;;;;;14.75;4.78;;;;;;;;;;5033930;28;20033;-82
2023/07/26 06:46:10;;;;;;;13.27;4.65;;;;;;;;;;5032533;28;20026;-79
2023/07/26 06:48:35;;;;;;;9.23;5.20;;;;;;;;;;5032831;28;20476;-79
2023/07/26 06:51:04;;;;;;;14.75;5.20;;;;;;;;;;5023232;28;20022;-79
2023/07/26 06:53:30;;;;;;;11.27;5.38;;;;;;;;;;5032363;28;20362;-79
2023/07/26 06:55:58;;;;;;;13.77;4.55;;;;;;;;;;5031957;28;20032;-78
2023/07/26 06:58:24;;;;;;;13.82;5.03;;;;;;;;;;5031601;28;20033;-78
2023/07/26 07:00:49;;;;;;;9.80;4.20;;;;;;;;;;5033532;28;20029;-79
2023/07/26 07:03:14;;;;;;;13.05;5.70;;;;;;;;;;5032025;28;20026;-78
2023/07/26 07:05:39;;;;;;;13.15;5.20;;;;;;;;;;5033124;28;20464;-79
2023/07/26 07:08:07;;;;;;;12.32;5.50;;;;;;;;;;5033188;28;20084;-79
2023/07/26 07:10:35;;;;;;;14.68;5.43;;;;;;;;;;5032664;28;20112;-79
2023/07/26 07:13:00;;;;;;;11.25;4.40;;;;;;;;;;5027313;28;20491;-79
2023/07/26 07:15:25;;;;;;;10.90;4.20;;;;;;;;;;5026812;28;20056;-79
2023/07/26 07:17:50;;;;;;;15.60;5.13;;;;;;;;;;5030382;28;20030;-79
2023/07/26 07:20:16;;;;;;;13.20;4.90;;;;;;;;;;5028191;28;20029;-78
2023/07/26 07:22:41;;;;;;;10.85;3.92;;;;;;;;;;5025209;28;20032;-80
2023/07/26 07:25:06;;;;;;;13.05;4.57;;;;;;;;;;5030847;28;20113;-79
2023/07/26 07:27:32;;;;;;;13.77;4.78;;;;;;;;;;5032734;28;20138;-79
2023/07/26 07:29:57;;;;;;;9.45;5.03;;;;;;;;;;5031606;28;20018;-79
2023/07/26 07:32:22;;;;;;;9.13;4.68;;;;;;;;;;5030833;28;20033;-79
2023/07/26 07:34:48;;;;;;;8.10;4.35;;;;;;;;;;5029687;28;20029;-79
2023/07/26 07:37:13;;;;;;;9.65;4.55;;;;;;;;;;5030420;28;20692;-79
2023/07/26 07:39:38;;;;;;;9.73;4.25;;;;;;;;;;5031773;28;20030;-79
2023/07/26 07:42:04;;;;;;;11.35;4.18;;;;;;;;;;5031887;28;20119;-78
2023/07/26 07:44:30;;;;;;;9.60;4.43;;;;;;;;;;5032002;28;20052;-78
2023/07/26 07:46:57;;;;;;;9.93;3.83;;;;;;;;;;5030875;28;20087;-79
2023/07/26 07:49:23;;;;;;;14.80;4.40;;;;;;;;;;5030288;28;20124;-79
2023/07/26 07:51:48;;;;;;;13.02;3.90;;;;;;;;;;5030097;28;20112;-79
2023/07/26 07:54:13;;;;;;;9.75;3.58;;;;;;;;;;5030036;28;20106;-79
2023/07/26 07:56:39;;;;;;;8.52;3.92;;;;;;;;;;5031183;28;20017;-79
2023/07/26 07:59:04;;;;;;;7.28;3.60;;;;;;;;;;5031707;28;20033;-79
2023/07/26 08:01:30;;;;;;;7.43;3.88;;;;;;;;;;5031983;28;20116;-79
2023/07/26 08:03:56;;;;;;;11.40;3.50;;;;;;;;;;5032431;28;20052;-79
2023/07/26 08:06:21;;;;;;;6.68;3.45;;;;;;;;;;5028443;28;20075;-79
2023/07/26 08:08:46;;;;;;;10.93;3.90;;;;;;;;;;5031129;28;20107;-79
2023/07/26 08:11:12;;;;;;;8.73;3.28;;;;;;;;;;5029379;28;20017;-79
2023/07/26 08:13:37;;;;;;;8.63;3.60;;;;;;;;;;5031120;28;20132;-80
2023/07/26 08:16:02;;;;;;;10.98;3.67;;;;;;;;;;5031995;28;20092;-79
2023/07/26 08:18:28;;;;;;;9.52;3.35;;;;;;;;;;5030794;28;20064;-79
2023/07/26 08:20:53;;;;;;;8.35;3.45;;;;;;;;;;5030802;28;20025;-78
2023/07/26 08:23:19;;;;;;;7.82;3.33;;;;;;;;;;5030570;28;20025;-80
2023/07/26 08:25:44;;;;;;;10.90;3.83;;;;;;;;;;5044594;28;20057;-80
2023/07/26 08:28:10;;;;;;;13.50;4.28;;;;;;;;;;5031044;28;20413;-79
2023/07/26 08:30:35;;;;;;;9.48;3.92;;;;;;;;;;5030764;28;20159;-80
2023/07/26 08:33:03;;;;;;;6.53;3.22;;;;;;;;;;5030517;28;20053;-79
2023/07/26 08:35:29;;;;;;;5.55;3.53;;;;;;;;;;5030820;28;20465;-79
2023/07/26 08:37:54;;;;;;;5.30;2.60;;;;;;;;;;5027918;28;20037;-80
2023/07/26 08:40:19;;;;;;;9.10;3.00;;;;;;;;;;5029017;28;20110;-79
2023/07/26 08:42:45;;;;;;;11.30;3.03;;;;;;;;;;5030380;28;20021;-80
2023/07/26 08:45:10;;;;;;;12.57;3.00;;;;;;;;;;5030654;28;20116;-80
2023/07/26 08:47:35;;;;;;;9.75;3.30;;;;;;;;;;5030478;28;20022;-80
2023/07/26 08:50:03;;;;;;;11.80;2.80;;;;;;;;;;5028119;28;20014;-80
2023/07/26 08:52:32;;;;;;;3.60;1.70;;;;;;;;;;5030510;28;20033;-80
2023/07/26 08:54:57;;;;;;;4.55;2.25;;;;;;;;;;5030565;28;20526;-80
2023/07/26 08:57:26;;;;;;;7.05;2.65;;;;;;;;;;5030616;28;20029;-80
2023/07/26 08:59:51;;;;;;;11.57;2.75;;;;;;;;;;5030458;28;20078;-79
2023/07/26 09:02:17;;;;;;;4.68;2.00;;;;;;;;;;5029976;28;20124;-79
2023/07/26 09:04:44;;;;;;;4.22;1.92;;;;;;;;;;5030485;28;20108;-80
2023/07/26 09:07:10;;;;;;;3.75;2.10;;;;;;;;;;5030972;28;20109;-80
2023/07/26 09:09:35;;;;;;;5.97;2.40;;;;;;;;;;5031763;28;20021;-80
2023/07/26 09:12:01;;;;;;;7.45;2.33;;;;;;;;;;5030028;28;20072;-79
2023/07/26 09:14:27;;;;;;;4.95;2.15;;;;;;;;;;5030712;28;20018;-79
2023/07/26 09:16:56;;;;;;;5.07;2.15;;;;;;;;;;5030560;28;20026;-79
2023/07/26 09:19:28;;;;;;;4.35;2.17;;;;;;;;;;5030390;28;20026;-80
2023/07/26 09:22:04;;;;;;;4.97;2.33;;;;;;;;;;5024186;28;20667;-80
2023/07/26 09:24:29;;;;;;;3.63;1.92;;;;;;;;;;5030024;28;20026;-80
2023/07/26 09:27:04;;;;;;;5.13;2.22;;;;;;;;;;5030662;28;20109;-79
2023/07/26 09:29:30;;;;;;;4.53;2.10;;;;;;;;;;5031919;28;20021;-80
2023/07/26 09:31:55;;;;;;;4.28;2.15;;;;;;;;;;5030627;28;20021;-79
2023/07/26 09:34:21;;;;;;;5.47;2.15;;;;;;;;;;5031227;28;20014;-79
2023/07/26 09:36:50;;;;;;;4.25;2.50;;;;;;;;;;5030822;28;20067;-79
2023/07/26 09:39:20;;;;;;;5.90;2.40;;;;;;;;;;5033311;28;20018;-80
2023/07/26 09:41:45;;;;;;;4.22;2.22;;;;;;;;;;5033617;28;20021;-79
2023/07/26 09:44:15;;;;;;;7.43;2.50;;;;;;;;;;5033042;28;20044;-79
2023/07/26 09:46:59;;;;;;;3.38;2.00;;;;;;;;;;5035055;28;20025;-79
2023/07/26 09:49:27;;;;;;;6.47;2.60;;;;;;;;;;5033706;28;20372;-79
2023/07/26 09:51:57;;;;;;;8.43;2.50;;;;;;;;;;5033639;28;20350;-80
2023/07/26 09:54:25;;;;;;;5.22;2.35;;;;;;;;;;5033007;28;20022;-79
2023/07/26 09:56:51;;;;;;;7.50;3.00;;;;;;;;;;5033901;28;20030;-79
2023/07/26 09:59:16;;;;;;;6.72;3.15;;;;;;;;;;5034067;28;20029;-80
2023/07/26 10:01:42;;;;;;;6.82;2.58;;;;;;;;;;5033281;28;20483;-80
2023/07/26 10:04:12;;;;;;;8.20;3.65;;;;;;;;;;5033969;28;20021;-80
2023/07/26 10:06:38;;;;;;;6.75;3.20;;;;;;;;;;5032874;28;20356;-80
2023/07/26 10:09:03;;;;;;;5.45;3.05;;;;;;;;;;5033253;28;20096;-79
2023/07/26 10:11:29;;;;;;;6.97;2.83;;;;;;;;;;5033059;28;20022;-80
2023/07/26 10:13:57;;;;;;;6.93;3.10;;;;;;;;;;5032437;28;20037;-80
2023/07/26 10:16:23;;;;;;;5.80;3.22;;;;;;;;;;5032090;28;20025;-80
2023/07/26 10:18:49;;;;;;;5.75;2.95;;;;;;;;;;5033114;28;20500;-80
2023/07/26 10:21:16;;;;;;;6.75;2.90;;;;;;;;;;5033081;28;20079;-80
2023/07/26 10:23:43;;;;;;;10.48;3.22;;;;;;;;;;5032777;28;20025;-80
2023/07/26 10:26:09;;;;;;;4.07;2.72;;;;;;;;;;5032375;28;20127;-80
2023/07/26 10:28:35;;;;;;;10.82;2.95;;;;;;;;;;5032458;28;20112;-80
2023/07/26 10:31:01;;;;;;;9.50;2.90;;;;;;;;;;5049391;28;20442;-80
2023/07/26 10:33:27;;;;;;;5.38;3.20;;;;;;;;;;5032620;28;20108;-79
2023/07/26 10:35:53;;;;;;;5.65;2.60;;;;;;;;;;5032232;28;20021;-80
2023/07/26 10:38:19;;;;;;;7.28;3.20;;;;;;;;;;5033064;28;20061;-80
2023/07/26 10:40:44;;;;;;;5.22;3.47;;;;;;;;;;5031274;28;20025;-80
2023/07/26 10:43:28;;;;;;;5.63;2.97;;;;;;;;;;5034096;28;20108;-80
2023/07/26 10:45:54;;;;;;;7.13;3.33;;;;;;;;;;5033439;28;20021;-80
2023/07/26 10:48:22;;;;;;;6.90;3.05;;;;;;;;;;5032124;28;20024;-79
2023/07/26 10:50:47;;;;;;;6.38;2.95;;;;;;;;;;5031977;28;20460;-80
2023/07/26 10:53:29;;;;;;;5.97;2.80;;;;;;;;;;5032611;28;20100;-79
2023/07/26 10:56:10;;;;;;;4.70;2.90;;;;;;;;;;5032409;28;20029;-80
2023/07/26 10:58:38;;;;;;;7.30;2.87;;;;;;;;;;5032538;28;20052;-80
2023/07/26 11:01:04;;;;;;;6.18;3.30;;;;;;;;;;5031861;28;20032;-79
2023/07/26 11:03:29;;;;;;;4.90;2.88;;;;;;;;;;5032443;28;20084;-80
2023/07/26 11:05:55;;;;;;;5.85;2.88;;;;;;;;;;5032792;28;20021;-80
2023/07/26 11:08:21;;;;;;;7.50;3.00;;;;;;;;;;5032553;28;20036;-80
2023/07/26 11:10:51;;;;;;;5.03;2.72;;;;;;;;;;5032810;28;20060;-80
2023/07/26 11:13:16;;;;;;;5.65;2.47;;;;;;;;;;5035019;28;20352;-80
2023/07/26 11:15:43;;;;;;;7.28;2.85;;;;;;;;;;5032309;28;20103;-80
2023/07/26 11:18:11;;;;;;;5.20;2.40;;;;;;;;;;5031966;28;20145;-80
2023/07/26 11:20:38;;;;;;;5.82;2.92;;;;;;;;;;5031323;28;20032;-81
2023/07/26 11:23:14;;;;;;;5.90;3.00;;;;;;;;;;5029503;28;20033;-81
2023/07/26 11:25:39;;;;;;;4.78;2.58;;;;;;;;;;5018950;28;20022;-81
2023/07/26 11:28:05;;;;;;;3.42;2.10;;;;;;;;;;5031821;28;20028;-81
2023/07/26 11:30:30;;;;;;;3.78;1.90;;;;;;;;;;5030405;28;20461;-82
2023/07/26 11:32:56;;;;;;;2.55;1.10;;;;;;;;;;5030899;28;20032;-83
2023/07/26 11:35:23;;;;;;;2.95;1.58;;;;;;;;;;5031091;28;20064;-81
2023/07/26 11:37:58;;;;;;;3.38;1.30;;;;;;;;;;5029495;28;20029;-82
2023/07/26 11:40:26;;;;;;;3.08;1.63;;;;;;;;;;5030941;28;20064;-82
2023/07/26 11:42:51;;;;;;;2.90;1.80;;;;;;;;;;5032330;28;20017;-82
2023/07/26 11:45:16;;;;;;;3.35;1.20;;;;;;;;;;5033163;28;20017;-81
2023/07/26 11:47:43;;;;;;;4.47;2.42;;;;;;;;;;5029773;28;20080;-82
2023/07/26 11:50:08;;;;;;;3.92;1.98;;;;;;;;;;5043461;28;20029;-82
2023/07/26 11:52:33;;;;;;;3.88;1.50;;;;;;;;;;5030915;28;20029;-81
2023/07/26 11:55:00;;;;;;;10.80;2.50;;;;;;;;;;5029974;28;20064;-82
2023/07/26 11:57:25;;;;;;;4.50;1.88;;;;;;;;;;5032189;28;20033;-81
2023/07/26 11:59:53;;;;;;;7.22;2.25;;;;;;;;;;5029405;28;20385;-81
2023/07/26 12:02:18;;;;;;;7.88;1.92;;;;;;;;;;5029932;28;20033;-82
2023/07/26 12:05:06;;;;;;;3.78;1.63;;;;;;;;;;5031075;28;20056;-82
2023/07/26 12:07:31;;;;;;;5.45;2.10;;;;;;;;;;5030305;28;20100;-81
2023/07/26 12:09:57;;;;;;;5.63;1.92;;;;;;;;;;5028278;28;20108;-81
2023/07/26 12:12:22;;;;;;;5.22;2.00;;;;;;;;;;5020626;28;20025;-81
2023/07/26 12:14:50;;;;;;;4.95;2.28;;;;;;;;;;5029801;28;20514;-82
2023/07/26 12:17:15;;;;;;;5.70;2.40;;;;;;;;;;5030471;28;20029;-82
2023/07/26 12:19:43;;;;;;;4.00;1.45;;;;;;;;;;5029635;28;20031;-80
2023/07/26 12:22:11;;;;;;;4.65;1.80;;;;;;;;;;5030117;28;20100;-81
2023/07/26 12:24:50;;;;;;;6.72;1.90;;;;;;;;;;5029138;28;20033;-82
2023/07/26 12:27:15;;;;;;;4.45;2.08;;;;;;;;;;5027680;28;20030;-82
2023/07/26 12:29:40;;;;;;;3.75;2.00;;;;;;;;;;5031233;28;20024;-82
2023/07/26 12:32:06;;;;;;;4.70;1.80;;;;;;;;;;5030824;28;20010;-81
2023/07/26 12:34:35;;;;;;;4.22;1.70;;;;;;;;;;5030794;28;20022;-81
2023/07/26 12:37:00;;;;;;;5.28;2.15;;;;;;;;;;5029881;28;20072;-82
2023/07/26 12:39:25;;;;;;;2.22;1.30;;;;;;;;;;5030858;28;20018;-81
2023/07/26 12:41:52;;;;;;;3.97;1.70;;;;;;;;;;5035345;28;20440;-81
2023/07/26 12:44:17;;;;;;;3.47;1.92;;;;;;;;;;5030899;28;20021;-81
2023/07/26 12:46:44;;;;;;;6.40;1.60;;;;;;;;;;5029992;28;20037;-81
2023/07/26 12:49:10;;;;;;;4.28;1.15;;;;;;;;;;5029164;28;20476;-82
2023/07/26 12:51:38;;;;;;;4.72;2.20;;;;;;;;;;5022221;28;20020;-82
2023/07/26 12:54:05;;;;;;;4.43;1.58;;;;;;;;;;5030693;28;20407;-81
2023/07/26 12:56:30;;;;;;;3.30;1.63;;;;;;;;;;5030571;28;20427;-81
2023/07/26 12:58:55;;;;;;;3.42;1.77;;;;;;;;;;5029593;28;20033;-81
2023/07/26 13:01:21;;;;;;;3.50;2.10;;;;;;;;;;5028407;28;20049;-80
2023/07/26 13:03:46;;;;;;;3.35;1.88;;;;;;;;;;5047013;28;20034;-81
2023/07/26 13:06:12;;;;;;;7.45;2.00;;;;;;;;;;5030309;28;20020;-81
2023/07/26 13:08:48;;;;;;;5.75;2.10;;;;;;;;;;5029812;28;20053;-80
2023/07/26 13:11:14;;;;;;;4.18;1.67;;;;;;;;;;5030157;28;20029;-81
2023/07/26 13:13:39;;;;;;;3.30;2.00;;;;;;;;;;5034084;28;20445;-81
2023/07/26 13:16:04;;;;;;;3.78;1.55;;;;;;;;;;5032953;28;20057;-81
2023/07/26 13:18:30;;;;;;;4.30;1.77;;;;;;;;;;5031443;28;20120;-81
2023/07/26 13:20:57;;;;;;;5.15;1.80;;;;;;;;;;5034105;28;20021;-81
2023/07/26 13:23:23;;;;;;;3.63;1.85;;;;;;;;;;5033951;28;20377;-81
2023/07/26 13:25:48;;;;;;;3.17;1.65;;;;;;;;;;5034026;28;20013;-81
2023/07/26 13:28:13;;;;;;;4.07;1.77;;;;;;;;;;5033051;28;20067;-80
2023/07/26 13:30:38;;;;;;;3.40;1.20;;;;;;;;;;5029435;28;20345;-81
2023/07/26 13:33:04;;;;;;;5.60;2.25;;;;;;;;;;5035932;28;20029;-81
2023/07/26 13:35:29;;;;;;;7.30;1.92;;;;;;;;;;5033573;28;20013;-81
2023/07/26 13:37:54;;;;;;;3.42;1.52;;;;;;;;;;5034225;28;20515;-81
2023/07/26 13:40:20;;;;;;;3.70;2.15;;;;;;;;;;5032160;28;20017;-81
2023/07/26 13:42:46;;;;;;;5.47;2.33;;;;;;;;;;5030100;28;20046;-81
2023/07/26 13:45:11;;;;;;;4.20;1.90;;;;;;;;;;5031892;28;20128;-81
2023/07/26 13:47:36;;;;;;;3.75;1.80;;;;;;;;;;5036953;28;20021;-81
2023/07/26 13:50:05;;;;;;;3.83;2.00;;;;;;;;;;5034305;28;20044;-80
2023/07/26 13:52:30;;;;;;;5.40;1.80;;;;;;;;;;5029199;28;20387;-79
2023/07/26 13:54:57;;;;;;;3.65;1.65;;;;;;;;;;5025710;28;20104;-79
2023/07/26 13:57:23;;;;;;;6.22;1.92;;;;;;;;;;5033515;28;20449;-80
2023/07/26 13:59:49;;;;;;;9.38;1.90;;;;;;;;;;5034887;28;20024;-80
2023/07/26 14:02:20;;;;;;;4.28;1.90;;;;;;;;;;5033137;28;20063;-80
2023/07/26 14:04:46;;;;;;;3.45;1.73;;;;;;;;;;5050990;28;20111;-80
2023/07/26 14:07:11;;;;;;;3.88;1.75;;;;;;;;;;5033733;28;20445;-80
2023/07/26 14:09:37;;;;;;;3.95;1.88;;;;;;;;;;5034959;28;20051;-80
2023/07/26 14:12:02;;;;;;;7.15;2.00;;;;;;;;;;5036792;28;20104;-80
2023/07/26 14:14:30;;;;;;;5.15;2.60;;;;;;;;;;5023680;28;20064;-80
2023/07/26 14:16:55;;;;;;;8.90;1.88;;;;;;;;;;5034748;28;20041;-80
2023/07/26 14:19:21;;;;;;;6.88;1.88;;;;;;;;;;5033152;28;20014;-80
2023/07/26 14:21:46;;;;;;;4.35;1.98;;;;;;;;;;5034809;28;20092;-80
2023/07/26 14:24:14;;;;;;;3.25;2.00;;;;;;;;;;5031329;28;20075;-80
2023/07/26 14:26:40;;;;;;;4.40;2.05;;;;;;;;;;5031954;28;20085;-80
2023/07/26 14:29:06;;;;;;;7.75;2.08;;;;;;;;;;5020175;28;20100;-80
2023/07/26 14:31:31;;;;;;;4.88;2.17;;;;;;;;;;5029933;28;20095;-80
2023/07/26 14:34:03;;;;;;;4.35;1.90;;;;;;;;;;5031782;28;20021;-79
2023/07/26 14:36:30;;;;;;;3.70;1.83;;;;;;;;;;5030446;28;20124;-79